Weather reports worldwide

Advertisment
Pajares/Valgrande, Spain (8031): temperature & dewpoint: 14.06.2019 06:00:00 - 20.06.2019 06:00:00 (CEST)Pajares/Valgrande, Spain (8031): wind speed & gusts: 14.06.2019 06:00:00 - 20.06.2019 06:00:00 (CEST)Pajares/Valgrande, Spain (8031): wind direction: 14.06.2019 06:00:00 - 20.06.2019 06:00:00 (CEST)Pajares/Valgrande, Spain (8031): precipitation: 14.06.2019 06:00:00 - 20.06.2019 06:00:00 (CEST)
Date & Time tt [°C] td [°C] ff [km/h] ff [kn] fx [km/h] fx [kn] dd rr [mm]
20.06.2019 06:00:00 - - - - - - - -
20.06.2019 05:00:00 7,5 6,1 0 0 5 3 N 0,2
20.06.2019 04:00:00 7,5 6,1 4 2 6 3 NNW 0,3
20.06.2019 03:00:00 7,8 6,4 3 2 7 4 NW 0,3
20.06.2019 02:00:00 8,1 6,7 4 2 17 9 NW -
20.06.2019 01:00:00 8,2 6,8 5 3 10 6 NNW 0,6
20.06.2019 00:00:00 8,5 7,1 6 3 10 5 NW 0,5
19.06.2019 23:00:00 8,8 7,4 5 3 14 7 NW 0,5
19.06.2019 22:00:00 9,2 7,8 5 3 - - NW -
19.06.2019 21:00:00 9,5 8,1 8 4 16 9 NW 0,1
19.06.2019 20:00:00 9,7 8,3 8 4 18 10 NW -
19.06.2019 19:00:00 10,1 8,5 8 5 18 10 NW 0,0
19.06.2019 18:00:00 10,9 9,2 6 4 13 7 NW 0,0
19.06.2019 17:00:00 11,9 9,3 5 3 13 7 NW 0,0
19.06.2019 16:00:00 - - - - - - - -
19.06.2019 15:00:00 - - - - - - - -
19.06.2019 14:00:00 14,1 6,7 10 5 23 12 S -
19.06.2019 13:00:00 - - - - - - - -
19.06.2019 12:00:00 - - - - - - - -
19.06.2019 11:00:00 - - - - - - - -
19.06.2019 10:00:00 - - - - - - - -
19.06.2019 09:00:00 - - - - - - - -
19.06.2019 08:00:00 - - - - - - - -
19.06.2019 07:00:00 - - - - - - - -
19.06.2019 06:00:00 - - - - - - - -
19.06.2019 05:00:00 - - - - - - - -
19.06.2019 04:00:00 - - - - - - - -
19.06.2019 03:00:00 - - - - - - - -
19.06.2019 02:00:00 - - - - - - - -
19.06.2019 01:00:00 - - - - - - - -
19.06.2019 00:00:00 - - - - - - - -
18.06.2019 23:00:00 - - - - - - - -
18.06.2019 22:00:00 - - - - - - - -
18.06.2019 21:00:00 - - - - - - - -
18.06.2019 20:00:00 - - - - - - - -
18.06.2019 19:00:00 11,9 7,0 20 11 40 22 S 0,6
18.06.2019 18:00:00 13,1 6,7 17 9 46 25 S 0,2
18.06.2019 17:00:00 14,7 6,5 19 11 53 28 S 0,0
18.06.2019 16:00:00 12,5 7,1 26 14 51 27 S 0,5
18.06.2019 15:00:00 13,9 6,1 14 8 51 27 S 0,0
18.06.2019 14:00:00 14,0 3,8 20 11 55 30 S -
18.06.2019 13:00:00 15,6 3,8 27 15 58 31 S 0,0
18.06.2019 12:00:00 15,6 2,7 19 11 46 25 S 0,0
18.06.2019 11:00:00 14,7 -0,7 22 12 55 30 S 0,0
18.06.2019 10:00:00 14,0 0,2 21 11 46 25 S 0,0
18.06.2019 09:00:00 13,2 0,6 22 12 49 27 ESE 0,0
18.06.2019 08:00:00 13,2 -0,5 16 8 36 20 S -
18.06.2019 07:00:00 12,6 -0,7 19 10 36 19 S 0,0
18.06.2019 06:00:00 12,4 -1,0 17 9 32 17 S 0,0
18.06.2019 05:00:00 12,7 -1,0 17 9 32 17 S 0,0
18.06.2019 04:00:00 12,4 -1,0 16 9 32 17 S 0,0
18.06.2019 03:00:00 12,4 -1,2 16 8 38 21 S 0,0
18.06.2019 02:00:00 13,0 -0,7 17 9 36 20 S -
18.06.2019 01:00:00 13,5 -1,2 17 9 45 25 S 0,0
18.06.2019 00:00:00 13,9 -2,2 20 11 41 22 S 0,0
17.06.2019 23:00:00 14,4 -3,0 11 6 30 16 SSW 0,0
17.06.2019 22:00:00 14,9 -3,6 9 5 19 11 SSW 0,0
17.06.2019 21:00:00 15,6 -3,9 8 4 29 16 S 0,0
17.06.2019 20:00:00 16,2 -2,0 10 5 24 13 S -
17.06.2019 19:00:00 14,2 7,3 2 1 32 17 N 0,0
17.06.2019 18:00:00 17,3 -4,2 18 10 35 19 SW 0,0
17.06.2019 17:00:00 17,9 -2,5 13 7 43 23 S 0,0
17.06.2019 16:00:00 17,5 -0,7 19 10 46 25 S 0,0
17.06.2019 15:00:00 18,0 0,6 23 12 53 28 S 0,0
17.06.2019 14:00:00 17,6 -1,2 23 13 46 25 S -
17.06.2019 13:00:00 16,8 2,7 21 11 51 28 S 0,0
17.06.2019 12:00:00 16,4 4,1 22 12 42 23 S 0,0
17.06.2019 11:00:00 15,8 4,5 14 8 39 21 SSE 0,0
17.06.2019 10:00:00 14,4 5,9 13 7 29 16 SE 0,0
17.06.2019 09:00:00 13,1 5,5 11 6 31 17 SSE 0,0
17.06.2019 08:00:00 12,3 5,0 21 11 30 16 S -
17.06.2019 07:00:00 11,3 4,3 18 10 27 14 SSE 0,0
17.06.2019 06:00:00 11,3 3,8 18 10 26 14 S 0,0
17.06.2019 05:00:00 11,4 3,2 16 9 24 13 S 0,0
17.06.2019 04:00:00 10,7 3,2 13 7 17 9 S 0,0
17.06.2019 03:00:00 9,3 5,0 7 4 13 7 S 0,0
17.06.2019 02:00:00 8,0 5,5 5 3 11 6 SSW -
17.06.2019 01:00:00 8,5 6,1 8 4 10 5 SSW 0,0
17.06.2019 00:00:00 10,4 8,0 1 0 4 2 W 0,0
16.06.2019 23:00:00 10,5 8,3 0 0 5 3 NW 0,0
16.06.2019 22:00:00 10,7 8,1 1 0 9 5 NW 0,0
16.06.2019 21:00:00 11,3 7,8 3 1 9 5 NW 0,0
16.06.2019 20:00:00 12,2 8,1 4 2 15 8 NW -
16.06.2019 19:00:00 13,5 8,5 6 3 15 8 NW 0,0
16.06.2019 18:00:00 14,2 8,7 7 4 19 11 NW 0,0
16.06.2019 17:00:00 15,2 8,7 9 5 19 10 NNW 0,0
16.06.2019 16:00:00 15,9 8,1 6 3 17 9 WNW 0,0
16.06.2019 15:00:00 17,1 1,5 9 5 24 13 S 0,0
16.06.2019 14:00:00 16,3 2,3 8 4 27 15 SE -
16.06.2019 13:00:00 15,2 2,7 11 6 27 15 SSE 0,0
16.06.2019 12:00:00 14,4 3,2 14 7 26 14 ESE 0,0
16.06.2019 11:00:00 12,9 3,2 16 8 26 14 ESE 0,0
16.06.2019 10:00:00 11,3 3,4 14 7 23 13 ESE 0,0
16.06.2019 09:00:00 9,8 2,9 12 7 27 14 SE 0,0
16.06.2019 08:00:00 8,4 2,7 16 9 32 18 S -
16.06.2019 07:00:00 7,4 2,7 21 12 34 19 S 0,0
16.06.2019 06:00:00 7,3 2,9 19 10 30 16 S 0,0
16.06.2019 05:00:00 7,3 3,0 18 10 29 16 S 0,0
16.06.2019 04:00:00 7,4 2,9 19 10 29 16 S 0,0
16.06.2019 03:00:00 7,8 3,4 15 8 27 14 S 0,0
16.06.2019 02:00:00 7,1 5,5 11 6 22 12 S -
16.06.2019 01:00:00 4,2 2,7 3 1 6 4 S 0,0
16.06.2019 00:00:00 5,4 3,9 3 2 7 4 SSE 0,1
15.06.2019 23:00:00 5,7 4,1 3 2 5 3 SW 0,0
15.06.2019 22:00:00 6,1 4,6 1 0 5 3 WNW 0,0
15.06.2019 21:00:00 6,2 4,6 3 1 6 4 WNW 0,0
15.06.2019 20:00:00 6,4 4,6 3 2 11 6 NW -
15.06.2019 19:00:00 6,8 5,1 6 3 16 8 NW 0,0
15.06.2019 18:00:00 7,5 5,3 7 4 17 9 NW 0,0
15.06.2019 17:00:00 9,7 5,5 9 5 19 10 NW 0,0
15.06.2019 16:00:00 12,0 6,1 5 3 17 9 NW 0,0
15.06.2019 15:00:00 11,2 4,8 6 4 16 9 NW 0,0
15.06.2019 14:00:00 11,2 1,9 6 3 29 16 N -
15.06.2019 13:00:00 11,4 1,9 8 4 26 14 S 0,0
15.06.2019 12:00:00 9,7 1,3 11 6 21 12 SSW 0,0
15.06.2019 11:00:00 8,3 2,1 11 6 26 14 S 0,0
15.06.2019 10:00:00 8,1 3,9 9 5 17 9 ESE 0,0
15.06.2019 09:00:00 6,0 2,5 6 3 16 9 SE 0,0
15.06.2019 08:00:00 6,0 3,8 2 1 16 9 ESE -
15.06.2019 07:00:00 3,2 1,9 9 5 14 7 S 0,0
15.06.2019 06:00:00 2,1 0,9 5 3 12 6 SSW 0,0
15.06.2019 05:00:00 2,7 1,3 6 3 11 6 SSW 0,0
15.06.2019 04:00:00 4,2 2,9 0 0 7 4 N 0,0
15.06.2019 03:00:00 4,5 3,2 3 1 7 4 N 0,0
15.06.2019 02:00:00 4,6 3,2 4 2 9 5 NW -
15.06.2019 01:00:00 4,6 3,2 3 2 9 5 NNW 0,1
15.06.2019 00:00:00 4,4 3,0 4 2 14 7 NW 0,3
14.06.2019 23:00:00 4,6 3,2 9 5 20 11 NW 0,8
14.06.2019 22:00:00 5,0 3,6 9 5 20 11 NW 1,1
14.06.2019 21:00:00 5,5 4,1 9 5 19 11 NW 0,3
14.06.2019 20:00:00 5,6 4,3 10 5 19 10 NW -
14.06.2019 19:00:00 5,8 4,5 10 5 19 11 NW 0,6
14.06.2019 18:00:00 5,9 4,5 8 4 14 8 NNW 0,1
14.06.2019 17:00:00 5,9 4,5 6 4 14 8 NW 0,0
14.06.2019 16:00:00 6,1 4,6 6 3 19 11 NW 0,0
14.06.2019 15:00:00 6,3 4,5 8 4 15 8 NW 0,0
14.06.2019 14:00:00 7,2 4,8 5 3 13 7 NNW -
14.06.2019 13:00:00 8,1 5,0 7 4 16 9 NNW 0,0
14.06.2019 12:00:00 7,7 4,8 5 3 14 8 NNW 0,0
14.06.2019 11:00:00 7,5 4,3 3 2 11 6 NNW 0,0
14.06.2019 10:00:00 8,2 4,3 3 1 8 5 NNW 0,0
14.06.2019 09:00:00 8,0 3,2 5 3 16 9 SSW 0,0
14.06.2019 08:00:00 6,3 2,3 6 3 14 8 S -
14.06.2019 07:00:00 4,4 1,7 9 5 16 9 S 0,0
14.06.2019 06:00:00 4,4 2,3 13 7 19 10 S 0,0

tt = temperature
td = dewpoint
ff = wind speed
fx = gusts
dd = wind direction
rr = precipitation

Next stations